createdAt,value
2022-11-17T00:00:18.765Z,0.00
2022-11-17T00:01:18.773Z,0.00
2022-11-17T00:02:18.841Z,0.00
2022-11-17T00:03:18.786Z,0.00
2022-11-17T00:04:18.796Z,0.00
2022-11-17T00:05:18.805Z,0.00
2022-11-17T00:06:18.811Z,0.00
2022-11-17T00:07:18.892Z,0.00
2022-11-17T00:08:18.848Z,0.00
2022-11-17T00:09:18.834Z,0.00
2022-11-17T00:10:18.842Z,0.00
2022-11-17T00:11:18.848Z,0.00
2022-11-17T00:12:22.473Z,0.00
2022-11-17T00:13:18.863Z,0.00
2022-11-17T00:14:18.872Z,0.00
2022-11-17T00:15:18.878Z,0.00
2022-11-17T00:16:18.890Z,0.00
2022-11-17T00:17:18.896Z,0.00
2022-11-17T00:18:18.918Z,0.00
2022-11-17T00:19:18.914Z,0.00
2022-11-17T00:20:18.919Z,0.00
2022-11-17T00:21:18.928Z,0.00
2022-11-17T00:22:18.935Z,0.00
2022-11-17T00:23:18.942Z,0.00
2022-11-17T00:24:19.063Z,0.00
2022-11-17T00:25:18.974Z,0.00
2022-11-17T00:26:18.972Z,0.00
2022-11-17T00:27:18.973Z,0.00
2022-11-17T00:28:18.982Z,0.00
2022-11-17T00:29:19.011Z,0.00
2022-11-17T00:30:18.999Z,0.00
2022-11-17T00:31:19.007Z,0.00
2022-11-17T00:32:19.015Z,0.00
2022-11-17T00:33:19.020Z,0.00
2022-11-17T00:34:19.034Z,0.00
2022-11-17T00:35:19.040Z,0.00
2022-11-17T00:36:19.047Z,0.00
2022-11-17T00:37:19.053Z,0.00
2022-11-17T00:38:19.066Z,0.00
2022-11-17T00:39:19.073Z,0.00
2022-11-17T00:40:19.100Z,0.00
2022-11-17T00:41:19.084Z,0.00
2022-11-17T00:42:19.095Z,0.00
2022-11-17T00:43:19.102Z,0.00
2022-11-17T00:44:19.112Z,0.00
2022-11-17T00:45:19.118Z,0.00
2022-11-17T00:46:19.126Z,0.00
2022-11-17T00:47:19.132Z,0.00
2022-11-17T00:48:19.141Z,0.00
2022-11-17T00:49:19.149Z,0.00
2022-11-17T00:50:19.165Z,0.00
2022-11-17T00:51:19.165Z,0.00
2022-11-17T00:52:19.178Z,0.00
2022-11-17T00:53:19.182Z,0.00
2022-11-17T00:54:19.191Z,0.00
2022-11-17T00:55:19.236Z,0.00
2022-11-17T00:56:19.321Z,0.00
2022-11-17T00:57:19.218Z,0.00
2022-11-17T00:58:19.249Z,0.00
2022-11-17T00:59:19.277Z,0.00
2022-11-17T01:00:19.240Z,0.00
2022-11-17T01:01:19.294Z,0.00
2022-11-17T01:02:19.256Z,0.00
2022-11-17T01:03:19.262Z,0.00
2022-11-17T01:04:19.275Z,0.00
2022-11-17T01:05:19.276Z,0.00
2022-11-17T01:06:19.291Z,0.00
2022-11-17T01:07:19.375Z,0.00
2022-11-17T01:08:19.299Z,0.00
2022-11-17T01:09:19.306Z,0.00
2022-11-17T01:10:19.316Z,0.00
2022-11-17T01:11:19.327Z,0.00
2022-11-17T01:12:19.351Z,0.00
2022-11-17T01:13:19.336Z,0.00
2022-11-17T01:14:19.349Z,0.00
2022-11-17T01:15:19.354Z,0.00
2022-11-17T01:16:19.363Z,0.00
2022-11-17T01:17:19.368Z,0.00
2022-11-17T01:18:19.378Z,0.00
2022-11-17T01:19:19.384Z,0.00
2022-11-17T01:20:19.394Z,0.00
2022-11-17T01:21:19.398Z,0.00
2022-11-17T01:22:19.408Z,0.00
2022-11-17T01:23:19.424Z,0.00
2022-11-17T01:24:19.427Z,0.00
2022-11-17T01:25:19.430Z,0.00
2022-11-17T01:26:19.440Z,0.00
2022-11-17T01:27:19.446Z,0.00
2022-11-17T01:28:19.567Z,0.00
2022-11-17T01:29:19.461Z,0.00
2022-11-17T01:30:19.474Z,0.00
2022-11-17T01:31:19.477Z,0.00
2022-11-17T01:32:19.490Z,0.00
2022-11-17T01:33:19.492Z,0.00
2022-11-17T01:34:19.505Z,0.00
2022-11-17T01:35:19.507Z,0.00
2022-11-17T01:36:19.527Z,0.00
2022-11-17T01:37:19.525Z,0.00
2022-11-17T01:38:19.534Z,0.00
2022-11-17T01:39:19.540Z,0.00
2022-11-17T01:40:19.548Z,0.00
2022-11-17T01:41:19.555Z,0.00
2022-11-17T01:42:19.566Z,0.00
2022-11-17T01:43:19.571Z,0.00
2022-11-17T01:44:19.694Z,0.00
2022-11-17T01:45:19.586Z,0.00
2022-11-17T01:46:19.595Z,0.00
2022-11-17T01:47:19.601Z,0.00
2022-11-17T01:48:19.613Z,0.00
2022-11-17T01:49:19.617Z,0.00
2022-11-17T01:50:19.636Z,0.00
2022-11-17T01:51:19.634Z,0.00
2022-11-17T01:52:19.642Z,0.00
2022-11-17T01:53:19.651Z,0.00
2022-11-17T01:54:19.670Z,0.00
2022-11-17T01:55:19.664Z,0.00
2022-11-17T01:56:19.673Z,0.00
2022-11-17T01:57:19.686Z,0.00
2022-11-17T01:58:19.690Z,0.00
2022-11-17T01:59:19.696Z,0.00
2022-11-17T02:00:19.818Z,0.00
2022-11-17T02:01:19.776Z,0.00
2022-11-17T02:02:19.725Z,0.00
2022-11-17T02:03:19.756Z,0.00
2022-11-17T02:04:19.742Z,0.00
2022-11-17T02:05:19.745Z,0.00
2022-11-17T02:06:19.753Z,0.00
2022-11-17T02:07:19.823Z,0.00
2022-11-17T02:08:19.768Z,0.00
2022-11-17T02:09:19.777Z,0.00
2022-11-17T02:10:19.787Z,0.00
2022-11-17T02:11:19.790Z,0.00
2022-11-17T02:12:19.800Z,0.00
2022-11-17T02:13:19.805Z,0.00
2022-11-17T02:14:19.817Z,0.00
2022-11-17T02:15:19.819Z,0.00
2022-11-17T02:16:19.944Z,0.00
2022-11-17T02:17:19.836Z,0.00
2022-11-17T02:18:19.844Z,0.00
2022-11-17T02:19:19.857Z,0.00
2022-11-17T02:20:19.859Z,0.00
2022-11-17T02:21:19.871Z,0.00
2022-11-17T02:22:19.875Z,0.00
2022-11-17T02:23:19.885Z,0.00
2022-11-17T02:24:19.888Z,0.00
2022-11-17T02:25:24.283Z,0.00
2022-11-17T02:26:19.906Z,0.00
2022-11-17T02:27:19.916Z,0.00
2022-11-17T02:28:19.927Z,0.00
2022-11-17T02:29:19.931Z,0.00
2022-11-17T02:30:19.934Z,0.00
2022-11-17T02:31:19.944Z,0.00
2022-11-17T02:32:20.064Z,0.00
2022-11-17T02:33:19.959Z,0.00
2022-11-17T02:34:19.985Z,0.00
2022-11-17T02:35:19.974Z,0.00
2022-11-17T02:36:19.980Z,0.00
2022-11-17T02:37:19.993Z,0.00
2022-11-17T02:38:19.995Z,0.00
2022-11-17T02:39:20.022Z,0.00
2022-11-17T02:40:20.014Z,0.00
2022-11-17T02:41:20.021Z,0.00
2022-11-17T02:42:20.038Z,0.00
2022-11-17T02:43:20.046Z,0.00
2022-11-17T02:44:20.045Z,0.00
2022-11-17T02:45:20.052Z,0.00
2022-11-17T02:46:20.061Z,0.00
2022-11-17T02:47:20.066Z,0.00
2022-11-17T02:48:20.184Z,0.00
2022-11-17T02:49:20.084Z,0.00
2022-11-17T02:50:24.026Z,0.00
2022-11-17T02:51:20.102Z,0.00
2022-11-17T02:52:20.105Z,0.00
2022-11-17T02:53:20.116Z,0.00
2022-11-17T02:54:20.121Z,0.00
2022-11-17T02:55:20.134Z,0.00
2022-11-17T02:56:20.135Z,0.00
2022-11-17T02:57:20.153Z,0.00
2022-11-17T02:58:20.154Z,0.00
2022-11-17T02:59:20.187Z,0.00
2022-11-17T03:00:20.168Z,0.00
2022-11-17T03:01:20.237Z,0.00
2022-11-17T03:02:20.179Z,0.00
2022-11-17T03:03:20.197Z,0.00
2022-11-17T03:04:20.213Z,0.00
2022-11-17T03:05:20.205Z,0.00
2022-11-17T03:06:20.210Z,0.00
2022-11-17T03:07:20.261Z,0.00
2022-11-17T03:08:20.228Z,0.00
2022-11-17T03:09:20.269Z,0.00
2022-11-17T03:10:20.254Z,0.00
2022-11-17T03:11:20.259Z,0.00
2022-11-17T03:12:20.253Z,0.00
2022-11-17T03:13:20.263Z,0.00
2022-11-17T03:14:20.270Z,0.00
2022-11-17T03:15:20.278Z,0.00
2022-11-17T03:16:20.283Z,0.00
2022-11-17T03:17:20.294Z,0.00
2022-11-17T03:18:20.300Z,0.00
2022-11-17T03:19:20.408Z,0.00
2022-11-17T03:20:20.425Z,0.00
2022-11-17T03:21:20.329Z,0.00
2022-11-17T03:22:20.329Z,0.00
2022-11-17T03:23:20.337Z,0.00
2022-11-17T03:24:20.341Z,0.00
2022-11-17T03:25:20.353Z,0.00
2022-11-17T03:26:20.358Z,0.00
2022-11-17T03:27:20.367Z,0.00
2022-11-17T03:28:20.375Z,0.00
2022-11-17T03:29:20.384Z,0.00
2022-11-17T03:30:20.388Z,0.00
2022-11-17T03:31:20.401Z,0.00
2022-11-17T03:32:20.404Z,0.00
2022-11-17T03:33:20.420Z,0.00
2022-11-17T03:34:20.423Z,0.00
2022-11-17T03:35:20.424Z,0.00
2022-11-17T03:36:20.448Z,0.00
2022-11-17T03:37:20.440Z,0.00
2022-11-17T03:38:20.447Z,0.00
2022-11-17T03:39:20.456Z,0.00
2022-11-17T03:40:20.460Z,0.00
2022-11-17T03:41:20.467Z,0.00
2022-11-17T03:42:20.476Z,0.00
2022-11-17T03:43:20.482Z,0.00
2022-11-17T03:44:20.492Z,0.00
2022-11-17T03:45:20.521Z,0.00
2022-11-17T03:46:20.504Z,0.00
2022-11-17T03:47:20.514Z,0.00
2022-11-17T03:48:20.516Z,0.00
2022-11-17T03:49:20.526Z,0.00
2022-11-17T03:50:20.530Z,0.00
2022-11-17T03:51:20.540Z,0.00
2022-11-17T03:52:20.610Z,0.00
2022-11-17T03:53:20.553Z,0.00
2022-11-17T03:54:20.558Z,0.00
2022-11-17T03:55:20.590Z,0.00
2022-11-17T03:56:20.575Z,0.00
2022-11-17T03:57:20.580Z,0.00
2022-11-17T03:58:20.587Z,0.00
2022-11-17T03:59:20.604Z,0.00
2022-11-17T04:00:20.700Z,0.00
2022-11-17T04:01:20.641Z,0.00
2022-11-17T04:02:20.618Z,0.00
2022-11-17T04:03:20.623Z,0.00
2022-11-17T04:04:20.632Z,0.00
2022-11-17T04:05:20.648Z,0.00
2022-11-17T04:06:20.643Z,0.00
2022-11-17T04:07:20.698Z,0.00
2022-11-17T04:08:20.772Z,0.00
2022-11-17T04:09:24.338Z,0.00
2022-11-17T04:10:20.713Z,0.00
2022-11-17T04:11:20.680Z,0.00
2022-11-17T04:12:20.685Z,0.00
2022-11-17T04:13:20.694Z,0.00
2022-11-17T04:14:20.726Z,0.00
2022-11-17T04:15:20.709Z,0.00
2022-11-17T04:16:20.719Z,0.00
2022-11-17T04:17:20.729Z,0.00
2022-11-17T04:18:20.728Z,0.00
2022-11-17T04:19:20.747Z,0.00
2022-11-17T04:20:20.747Z,0.00
2022-11-17T04:21:20.749Z,0.00
2022-11-17T04:22:20.756Z,0.00
2022-11-17T04:23:20.762Z,0.00
2022-11-17T04:24:20.899Z,0.00
2022-11-17T04:25:20.780Z,0.00
2022-11-17T04:26:20.788Z,0.00
2022-11-17T04:27:20.799Z,0.00
2022-11-17T04:28:20.798Z,0.00
2022-11-17T04:29:20.811Z,0.00
2022-11-17T04:30:20.812Z,0.00
2022-11-17T04:31:20.824Z,0.00
2022-11-17T04:32:20.828Z,0.00
2022-11-17T04:33:20.835Z,0.00
2022-11-17T04:34:20.850Z,0.00
2022-11-17T04:35:20.851Z,0.00
2022-11-17T04:36:20.860Z,0.00
2022-11-17T04:37:20.864Z,0.00
2022-11-17T04:38:20.871Z,0.00
2022-11-17T04:39:20.886Z,0.00
2022-11-17T04:40:20.998Z,0.00
2022-11-17T04:41:20.894Z,0.00
2022-11-17T04:42:20.899Z,0.00
2022-11-17T04:43:20.908Z,0.00
2022-11-17T04:44:20.914Z,0.00
2022-11-17T04:45:20.922Z,0.00
2022-11-17T04:46:20.929Z,0.00
2022-11-17T04:47:20.936Z,0.00
2022-11-17T04:48:20.949Z,0.00
2022-11-17T04:49:20.954Z,0.00
2022-11-17T04:50:20.991Z,0.00
2022-11-17T04:51:20.964Z,0.00
2022-11-17T04:52:25.422Z,0.00
2022-11-17T04:53:20.979Z,0.00
2022-11-17T04:54:20.987Z,0.00
2022-11-17T04:55:20.992Z,0.00
2022-11-17T04:56:21.019Z,0.00
2022-11-17T04:57:21.008Z,0.00
2022-11-17T04:58:21.012Z,0.00
2022-11-17T04:59:21.021Z,0.00
2022-11-17T05:00:21.025Z,0.00
2022-11-17T05:01:21.036Z,0.00
2022-11-17T05:02:21.068Z,0.00
2022-11-17T05:03:21.050Z,0.00
2022-11-17T05:04:21.054Z,0.00
2022-11-17T05:05:21.061Z,0.00
2022-11-17T05:06:21.072Z,0.00
2022-11-17T05:07:21.211Z,0.00
2022-11-17T05:08:21.082Z,0.00
2022-11-17T05:09:21.138Z,0.00
2022-11-17T05:10:21.105Z,0.00
2022-11-17T05:11:21.129Z,0.00
2022-11-17T05:12:21.225Z,0.00
2022-11-17T05:13:21.119Z,0.00
2022-11-17T05:14:21.240Z,0.00
2022-11-17T05:15:21.130Z,0.00
2022-11-17T05:16:21.134Z,0.00
2022-11-17T05:17:21.149Z,0.00
2022-11-17T05:18:21.153Z,0.00
2022-11-17T05:19:21.164Z,0.00
2022-11-17T05:20:21.163Z,0.00
2022-11-17T05:21:21.171Z,0.00
2022-11-17T05:22:21.178Z,0.00
2022-11-17T05:23:21.185Z,0.00
2022-11-17T05:24:21.191Z,0.00
2022-11-17T05:25:21.200Z,0.00
2022-11-17T05:26:21.208Z,0.00
2022-11-17T05:27:21.212Z,0.00
2022-11-17T05:28:21.272Z,0.00
2022-11-17T05:29:21.227Z,0.00
2022-11-17T05:30:21.231Z,0.00
2022-11-17T05:31:21.240Z,0.00
2022-11-17T05:32:21.246Z,0.00
2022-11-17T05:33:21.254Z,0.00
2022-11-17T05:34:21.260Z,0.00
2022-11-17T05:35:21.267Z,0.00
2022-11-17T05:36:21.270Z,0.00
2022-11-17T05:37:21.283Z,0.00
2022-11-17T05:38:21.287Z,0.00
2022-11-17T05:39:21.293Z,0.00
2022-11-17T05:40:21.298Z,0.00
2022-11-17T05:41:21.307Z,0.00
2022-11-17T05:42:21.323Z,0.00
2022-11-17T05:43:21.325Z,0.00
2022-11-17T05:44:21.438Z,0.00
2022-11-17T05:45:21.333Z,0.00
2022-11-17T05:46:21.342Z,0.00
2022-11-17T05:47:21.350Z,0.00
2022-11-17T05:48:21.365Z,0.00
2022-11-17T05:49:21.361Z,0.00
2022-11-17T05:50:21.366Z,0.00
2022-11-17T05:51:21.392Z,0.00
2022-11-17T05:52:21.382Z,0.00
2022-11-17T05:53:21.397Z,0.00
2022-11-17T05:54:21.398Z,0.00
2022-11-17T05:55:21.404Z,0.00
2022-11-17T05:56:21.409Z,0.00
2022-11-17T05:57:21.415Z,0.00
2022-11-17T05:58:21.420Z,0.00
2022-11-17T05:59:26.314Z,0.00
2022-11-17T06:00:21.543Z,0.00
2022-11-17T06:01:21.443Z,0.00
2022-11-17T06:02:21.450Z,0.00
2022-11-17T06:03:21.456Z,0.00
2022-11-17T06:04:21.537Z,0.00
2022-11-17T06:05:21.472Z,0.00
2022-11-17T06:06:21.476Z,0.00
2022-11-17T06:07:21.520Z,0.00
2022-11-17T06:08:21.500Z,0.00
2022-11-17T06:09:21.497Z,0.00
2022-11-17T06:10:21.507Z,0.00
2022-11-17T06:11:21.515Z,0.00
2022-11-17T06:12:21.517Z,0.00
2022-11-17T06:13:21.531Z,0.00
2022-11-17T06:14:21.529Z,0.00
2022-11-17T06:15:21.536Z,0.00
2022-11-17T06:16:21.657Z,0.00
2022-11-17T06:17:22.696Z,0.00
2022-11-17T06:18:21.563Z,0.00
2022-11-17T06:19:21.565Z,4.00
2022-11-17T06:20:21.570Z,0.00
2022-11-17T06:21:21.576Z,0.00
2022-11-17T06:22:21.585Z,4.00
2022-11-17T06:23:21.596Z,4.00
2022-11-17T06:24:21.596Z,4.00
2022-11-17T06:25:21.610Z,4.00
2022-11-17T06:26:21.610Z,4.00
2022-11-17T06:27:21.617Z,4.00
2022-11-17T06:28:21.626Z,4.00
2022-11-17T06:29:21.634Z,8.00
2022-11-17T06:30:21.637Z,8.00
2022-11-17T06:31:21.646Z,8.00
2022-11-17T06:32:21.770Z,8.00
2022-11-17T06:33:21.664Z,8.00
2022-11-17T06:34:21.676Z,12.00
2022-11-17T06:35:21.672Z,8.00
2022-11-17T06:36:21.680Z,12.00
2022-11-17T06:37:21.686Z,12.00
2022-11-17T06:38:21.699Z,12.00
2022-11-17T06:39:21.701Z,16.00
2022-11-17T06:40:21.711Z,16.00
2022-11-17T06:41:21.715Z,16.00
2022-11-17T06:42:21.722Z,16.00
2022-11-17T06:43:21.734Z,16.00
2022-11-17T06:44:21.738Z,20.00
2022-11-17T06:45:21.742Z,20.00
2022-11-17T06:46:21.754Z,24.00
2022-11-17T06:47:21.764Z,28.00
2022-11-17T06:48:21.879Z,28.00
2022-11-17T06:49:21.776Z,28.00
2022-11-17T06:50:21.780Z,28.00
2022-11-17T06:51:21.784Z,32.00
2022-11-17T06:52:21.792Z,32.00
2022-11-17T06:53:21.812Z,36.00
2022-11-17T06:54:21.828Z,36.00
2022-11-17T06:55:21.823Z,36.00
2022-11-17T06:56:21.838Z,36.00
2022-11-17T06:57:21.839Z,36.00
2022-11-17T06:58:21.857Z,36.00
2022-11-17T06:59:21.860Z,40.00
2022-11-17T07:00:21.873Z,40.00
2022-11-17T07:01:21.895Z,44.00
2022-11-17T07:02:21.883Z,44.00
2022-11-17T07:03:21.880Z,40.00
2022-11-17T07:04:22.014Z,40.00
2022-11-17T07:05:21.898Z,44.00
2022-11-17T07:06:21.912Z,44.00
2022-11-17T07:07:21.957Z,44.00
2022-11-17T07:08:21.936Z,48.00
2022-11-17T07:09:21.927Z,52.00
2022-11-17T07:10:21.959Z,52.00
2022-11-17T07:11:21.938Z,56.00
2022-11-17T07:12:21.957Z,60.00
2022-11-17T07:13:21.953Z,64.00
2022-11-17T07:14:21.968Z,76.00
2022-11-17T07:15:21.964Z,84.00
2022-11-17T07:16:24.046Z,88.00
2022-11-17T07:17:21.980Z,96.00
2022-11-17T07:18:21.995Z,100.00
2022-11-17T07:19:22.094Z,104.00
2022-11-17T07:20:22.027Z,108.00
2022-11-17T07:21:22.007Z,112.00
2022-11-17T07:22:22.029Z,116.00
2022-11-17T07:23:22.021Z,120.00
2022-11-17T07:24:22.037Z,120.00
2022-11-17T07:25:22.651Z,124.00
2022-11-17T07:26:22.050Z,124.00
2022-11-17T07:27:22.049Z,124.00
2022-11-17T07:28:22.070Z,124.00
2022-11-17T07:29:22.088Z,128.00
2022-11-17T07:30:22.084Z,124.00
2022-11-17T07:31:22.115Z,124.00
2022-11-17T07:32:22.099Z,128.00
2022-11-17T07:33:22.097Z,128.00
2022-11-17T07:34:22.128Z,128.00
2022-11-17T07:35:22.107Z,132.00
2022-11-17T07:36:22.238Z,136.00
2022-11-17T07:37:22.120Z,140.00
2022-11-17T07:38:22.137Z,140.00
2022-11-17T07:39:22.232Z,144.00
2022-11-17T07:40:22.152Z,148.00
2022-11-17T07:41:22.148Z,152.00
2022-11-17T07:42:22.171Z,156.00
2022-11-17T07:43:22.163Z,160.00
2022-11-17T07:44:22.184Z,164.00
2022-11-17T07:45:24.114Z,168.00
2022-11-17T07:46:22.195Z,168.00
2022-11-17T07:47:22.201Z,172.00
2022-11-17T07:48:22.208Z,172.00
2022-11-17T07:49:22.210Z,172.00
2022-11-17T07:50:22.224Z,172.00
2022-11-17T07:51:22.240Z,180.00
2022-11-17T07:52:22.261Z,180.00
2022-11-17T07:53:22.241Z,188.00
2022-11-17T07:54:22.257Z,188.00
2022-11-17T07:55:22.255Z,188.00
2022-11-17T07:56:22.285Z,192.00
2022-11-17T07:57:22.271Z,196.00
2022-11-17T07:58:22.286Z,204.00
2022-11-17T07:59:22.285Z,212.00
2022-11-17T08:00:22.302Z,216.00
2022-11-17T08:01:22.320Z,220.00
2022-11-17T08:02:22.316Z,220.00
2022-11-17T08:03:22.366Z,224.00
2022-11-17T08:04:22.345Z,240.00
2022-11-17T08:05:22.331Z,308.00
2022-11-17T08:06:22.360Z,308.00
2022-11-17T08:07:22.405Z,368.00
2022-11-17T08:08:22.481Z,352.00
2022-11-17T08:09:22.365Z,320.00
2022-11-17T08:10:22.380Z,336.00
2022-11-17T08:11:22.377Z,364.00
2022-11-17T08:12:22.396Z,304.00
2022-11-17T08:13:22.394Z,356.00
2022-11-17T08:14:22.409Z,332.00
2022-11-17T08:15:22.420Z,320.00
2022-11-17T08:16:22.436Z,352.00
2022-11-17T08:17:22.424Z,356.00
2022-11-17T08:18:22.442Z,308.00
2022-11-17T08:19:22.441Z,320.00
2022-11-17T08:20:22.475Z,360.00
2022-11-17T08:21:22.457Z,408.00
2022-11-17T08:22:22.477Z,344.00
2022-11-17T08:23:22.471Z,388.00
2022-11-17T08:24:22.507Z,332.00
2022-11-17T08:25:22.505Z,376.00
2022-11-17T08:26:22.508Z,344.00
2022-11-17T08:27:22.505Z,344.00
2022-11-17T08:28:22.519Z,364.00
2022-11-17T08:29:22.517Z,372.00
2022-11-17T08:30:22.602Z,364.00
2022-11-17T08:31:22.534Z,400.00
2022-11-17T08:32:22.551Z,384.00
2022-11-17T08:33:22.566Z,348.00
2022-11-17T08:34:22.567Z,376.00
2022-11-17T08:35:22.564Z,372.00
2022-11-17T08:36:22.580Z,400.00
2022-11-17T08:37:22.583Z,392.00
2022-11-17T08:38:22.603Z,360.00
2022-11-17T08:39:22.596Z,420.00
2022-11-17T08:40:22.675Z,392.00
2022-11-17T08:41:22.614Z,388.00
2022-11-17T08:42:22.869Z,460.00
2022-11-17T08:43:22.629Z,456.00
2022-11-17T08:44:22.652Z,420.00
2022-11-17T08:45:22.646Z,376.00
2022-11-17T08:46:22.667Z,456.00
2022-11-17T08:47:22.661Z,456.00
2022-11-17T08:48:22.676Z,440.00
2022-11-17T08:49:22.677Z,496.00
2022-11-17T08:50:22.717Z,504.00
2022-11-17T08:51:22.693Z,452.00
2022-11-17T08:52:22.714Z,428.00
2022-11-17T08:53:22.718Z,520.00
2022-11-17T08:54:22.731Z,496.00
2022-11-17T08:55:22.802Z,476.00
2022-11-17T08:56:22.780Z,492.00
2022-11-17T08:57:22.841Z,448.00
2022-11-17T08:58:22.755Z,464.00
2022-11-17T08:59:22.751Z,620.00
2022-11-17T09:00:22.788Z,712.00
2022-11-17T09:01:22.843Z,560.00
2022-11-17T09:02:22.789Z,532.00
2022-11-17T09:03:22.783Z,568.00
2022-11-17T09:04:22.796Z,580.00
2022-11-17T09:05:22.807Z,572.00
2022-11-17T09:06:22.811Z,612.00
2022-11-17T09:07:22.903Z,544.00
2022-11-17T09:08:44.495Z,616.00
2022-11-17T09:09:22.864Z,564.00
2022-11-17T09:10:22.845Z,528.00
2022-11-17T09:11:22.850Z,468.00
2022-11-17T09:12:23.557Z,492.00
2022-11-17T09:13:22.873Z,620.00
2022-11-17T09:14:22.880Z,776.00
2022-11-17T09:15:22.884Z,724.00
2022-11-17T09:16:22.897Z,688.00
2022-11-17T09:17:22.906Z,644.00
2022-11-17T09:18:22.914Z,656.00
2022-11-17T09:19:22.922Z,696.00
2022-11-17T09:20:22.933Z,656.00
2022-11-17T09:21:22.938Z,684.00
2022-11-17T09:22:22.950Z,700.00
2022-11-17T09:23:22.958Z,660.00
2022-11-17T09:24:22.969Z,648.00
2022-11-17T09:25:22.975Z,416.00
2022-11-17T09:26:22.986Z,776.00
2022-11-17T09:27:23.007Z,768.00
2022-11-17T09:28:23.116Z,772.00
2022-11-17T09:29:23.009Z,800.00
2022-11-17T09:30:23.021Z,804.00
2022-11-17T09:31:23.080Z,812.00
2022-11-17T09:32:23.040Z,820.00
2022-11-17T09:33:23.047Z,828.00
2022-11-17T09:34:23.120Z,848.00
2022-11-17T09:35:23.061Z,852.00
2022-11-17T09:36:23.079Z,864.00
2022-11-17T09:37:23.082Z,852.00
2022-11-17T09:38:23.094Z,800.00
2022-11-17T09:39:23.103Z,804.00
2022-11-17T09:40:23.112Z,636.00
2022-11-17T09:41:23.126Z,736.00
2022-11-17T09:42:23.135Z,856.00
2022-11-17T09:43:23.140Z,764.00
2022-11-17T09:44:23.176Z,744.00
2022-11-17T09:45:23.157Z,916.00
2022-11-17T09:46:23.172Z,888.00
2022-11-17T09:47:23.175Z,932.00
2022-11-17T09:48:40.793Z,852.00
2022-11-17T09:49:23.205Z,748.00
2022-11-17T09:50:23.219Z,824.00
2022-11-17T09:51:23.229Z,752.00
2022-11-17T09:52:23.228Z,684.00
2022-11-17T09:53:23.233Z,728.00
2022-11-17T09:54:23.263Z,268.00
2022-11-17T09:55:23.254Z,704.00
2022-11-17T09:56:23.269Z,728.00
2022-11-17T09:57:23.276Z,792.00
2022-11-17T09:58:23.310Z,772.00
2022-11-17T09:59:23.291Z,860.00
2022-11-17T10:00:23.425Z,944.00
2022-11-17T10:01:23.311Z,372.00
2022-11-17T10:02:23.396Z,336.00
2022-11-17T10:03:23.330Z,984.00
2022-11-17T10:04:23.347Z,496.00
2022-11-17T10:05:23.354Z,1140.00
2022-11-17T10:06:23.366Z,252.00
2022-11-17T10:07:23.405Z,264.00
2022-11-17T10:08:23.408Z,292.00
2022-11-17T10:09:25.836Z,840.00
2022-11-17T10:10:23.399Z,992.00
2022-11-17T10:11:23.405Z,1124.00
2022-11-17T10:12:23.417Z,1140.00
2022-11-17T10:13:23.423Z,1172.00
2022-11-17T10:14:23.436Z,1188.00
2022-11-17T10:15:23.443Z,1212.00
2022-11-17T10:16:23.473Z,1272.00
2022-11-17T10:17:23.464Z,1056.00
2022-11-17T10:18:23.475Z,520.00
2022-11-17T10:19:23.486Z,964.00
2022-11-17T10:20:23.497Z,1044.00
2022-11-17T10:21:23.513Z,1232.00
2022-11-17T10:22:23.524Z,1252.00
2022-11-17T10:23:23.523Z,1132.00
2022-11-17T10:24:23.533Z,1176.00
2022-11-17T10:25:23.551Z,304.00
2022-11-17T10:26:23.559Z,244.00
2022-11-17T10:27:23.560Z,244.00
2022-11-17T10:28:23.579Z,248.00
2022-11-17T10:29:23.584Z,260.00
2022-11-17T10:30:23.594Z,372.00
2022-11-17T10:31:23.605Z,380.00
2022-11-17T10:32:23.635Z,1220.00
2022-11-17T10:33:23.622Z,1256.00
2022-11-17T10:34:29.857Z,1232.00
2022-11-17T10:35:23.641Z,1232.00
2022-11-17T10:36:23.657Z,1188.00
2022-11-17T10:37:23.662Z,1208.00
2022-11-17T10:38:23.678Z,1212.00
2022-11-17T10:39:23.682Z,1212.00
2022-11-17T10:40:25.620Z,1196.00
2022-11-17T10:41:23.722Z,1244.00
2022-11-17T10:42:23.716Z,1196.00
2022-11-17T10:43:23.748Z,1164.00
2022-11-17T10:44:23.743Z,1216.00
2022-11-17T10:45:23.770Z,1300.00
2022-11-17T10:46:23.767Z,1232.00
2022-11-17T10:47:23.769Z,1204.00
2022-11-17T10:48:23.807Z,1164.00
2022-11-17T10:49:23.800Z,1172.00
2022-11-17T10:50:23.800Z,1068.00
2022-11-17T10:51:23.813Z,1204.00
2022-11-17T10:52:23.821Z,1096.00
2022-11-17T10:53:23.846Z,1176.00
2022-11-17T10:54:23.867Z,1104.00
2022-11-17T10:55:23.859Z,1016.00
2022-11-17T10:56:23.869Z,1008.00
2022-11-17T10:57:23.881Z,908.00
2022-11-17T10:58:23.894Z,852.00
2022-11-17T10:59:23.905Z,892.00
2022-11-17T11:00:23.916Z,1056.00
2022-11-17T11:01:25.944Z,1004.00
2022-11-17T11:02:23.940Z,920.00
2022-11-17T11:03:23.964Z,1088.00
2022-11-17T11:04:23.989Z,1168.00
2022-11-17T11:05:23.977Z,1184.00
2022-11-17T11:06:23.997Z,1052.00
2022-11-17T11:07:24.107Z,1132.00
2022-11-17T11:08:24.012Z,952.00
2022-11-17T11:09:24.027Z,892.00
2022-11-17T11:10:24.035Z,992.00
2022-11-17T11:11:24.050Z,1180.00
2022-11-17T11:12:24.059Z,1100.00
2022-11-17T11:13:24.075Z,1124.00
2022-11-17T11:14:24.087Z,1016.00
2022-11-17T11:15:24.098Z,1084.00
2022-11-17T11:16:24.106Z,1068.00
2022-11-17T11:17:24.125Z,984.00
2022-11-17T11:18:24.132Z,1028.00
2022-11-17T11:19:24.148Z,960.00
2022-11-17T11:20:24.184Z,952.00
2022-11-17T11:21:24.175Z,820.00
2022-11-17T11:22:24.181Z,720.00
2022-11-17T11:23:24.198Z,724.00
2022-11-17T11:24:24.205Z,620.00
2022-11-17T11:25:24.222Z,648.00
2022-11-17T11:26:24.232Z,564.00
2022-11-17T11:27:24.244Z,692.00
2022-11-17T11:28:24.261Z,648.00
2022-11-17T11:29:24.270Z,636.00
2022-11-17T11:30:24.278Z,700.00
2022-11-17T11:31:24.292Z,772.00
2022-11-17T11:32:24.310Z,864.00
2022-11-17T11:33:24.323Z,820.00
2022-11-17T11:34:24.323Z,728.00
2022-11-17T11:35:24.342Z,600.00
2022-11-17T11:36:24.376Z,536.00
2022-11-17T11:37:24.366Z,520.00
2022-11-17T11:38:24.368Z,476.00
2022-11-17T11:39:24.385Z,496.00
2022-11-17T11:40:24.392Z,484.00
2022-11-17T11:41:24.510Z,456.00
2022-11-17T11:42:24.415Z,448.00
2022-11-17T11:43:24.440Z,456.00
2022-11-17T11:44:24.440Z,524.00
2022-11-17T11:45:24.452Z,468.00
2022-11-17T11:46:24.463Z,440.00
2022-11-17T11:47:24.478Z,460.00
2022-11-17T11:48:24.485Z,452.00
2022-11-17T11:49:24.502Z,464.00
2022-11-17T11:50:24.509Z,476.00
2022-11-17T11:51:24.532Z,564.00
2022-11-17T11:52:24.562Z,480.00
2022-11-17T11:53:24.547Z,556.00
2022-11-17T11:54:24.553Z,644.00
2022-11-17T11:55:24.583Z,932.00
2022-11-17T11:56:24.575Z,904.00
2022-11-17T11:57:24.590Z,912.00
2022-11-17T11:58:24.600Z,728.00
2022-11-17T11:59:24.612Z,792.00
2022-11-17T12:00:24.621Z,620.00
2022-11-17T12:01:24.636Z,956.00
2022-11-17T12:02:24.704Z,996.00
2022-11-17T12:03:24.898Z,1172.00
2022-11-17T12:04:24.670Z,1100.00
2022-11-17T12:05:24.685Z,1204.00
2022-11-17T12:06:24.693Z,1120.00
2022-11-17T12:07:24.848Z,1024.00
2022-11-17T12:08:24.738Z,904.00
2022-11-17T12:09:24.735Z,1212.00
2022-11-17T12:10:24.744Z,964.00
2022-11-17T12:11:24.754Z,1128.00
2022-11-17T12:12:24.780Z,1200.00
2022-11-17T12:13:24.779Z,1192.00
2022-11-17T12:14:24.787Z,1188.00
2022-11-17T12:15:24.808Z,1180.00
2022-11-17T12:16:24.814Z,1180.00
2022-11-17T12:17:24.832Z,1180.00
2022-11-17T12:18:24.840Z,1180.00
2022-11-17T12:19:24.851Z,1192.00
2022-11-17T12:20:24.861Z,1196.00
2022-11-17T12:21:24.877Z,1204.00
2022-11-17T12:22:24.887Z,1216.00
2022-11-17T12:23:24.902Z,280.00
2022-11-17T12:24:24.933Z,504.00
2022-11-17T12:25:24.927Z,1192.00
2022-11-17T12:26:24.939Z,1196.00
2022-11-17T12:27:24.954Z,1192.00
2022-11-17T12:28:24.964Z,1184.00
2022-11-17T12:29:24.980Z,1188.00
2022-11-17T12:30:24.988Z,1172.00
2022-11-17T12:31:25.004Z,1020.00
2022-11-17T12:32:25.015Z,1188.00
2022-11-17T12:33:25.029Z,1176.00
2022-11-17T12:34:25.043Z,1188.00
2022-11-17T12:35:25.057Z,1220.00
2022-11-17T12:36:30.020Z,208.00
2022-11-17T12:37:25.082Z,1236.00
2022-11-17T12:38:25.095Z,1196.00
2022-11-17T12:39:25.107Z,1212.00
2022-11-17T12:40:25.135Z,212.00
2022-11-17T12:41:25.138Z,1168.00
2022-11-17T12:42:25.143Z,1160.00
2022-11-17T12:43:25.161Z,1168.00
2022-11-17T12:44:25.173Z,1168.00
2022-11-17T12:45:25.189Z,1168.00
2022-11-17T12:46:25.200Z,1136.00
2022-11-17T12:47:25.213Z,1168.00
2022-11-17T12:48:33.910Z,488.00
2022-11-17T12:49:25.244Z,484.00
2022-11-17T12:50:25.251Z,1072.00
2022-11-17T12:51:25.266Z,576.00